Custom file does not exist C:\wdisplay\webfiles\testtags.txt Borgafjälls vädersida - Nearby METAR Reports

Nearby METAR Reports

 

KSJC - San Jose, California, USA
Distance from station: NE 14km
Mise jour: 29/09/2020 13:53
clair
clair
 Wind from calm
Vent: calme
Temprature: 18°C
Point de rose: 12°C
Humidit: 68%
Baromtre: 1014.6 hPa
Clouds: clair
Visibility: 16 km
2020/09/29 11:53 KSJC 291153Z AUTO 00000KT 10SM CLR 18/12 A2996 RMK AO2 SLP145 T01780122 10211 20178 53000
KNUQ - Moffett Nas/Mtn, California, USA
Distance from station: N 14km
Mise jour: 29/09/2020 14:35
couvert
couvert
 Wind from calm
Vent: calme
Temprature: 18°C
Point de rose: 15°C
Humidit: 83%
Baromtre: 1014.9 hPa
Clouds: couvert
Visibility: 16 km
Cloud details: partiellement nuageux 488 m
couvert 1189 m
2020/09/29 12:35 KNUQ 291235Z AUTO 00000KT 10SM SCT016 OVC039 18/15 A2997 RMK AO2
 
KPAO - Palo Alto, California, USA
Distance from station: NNO 23km
Mise jour: 29/09/2020 03:47
NOT Current
Smoke, clair
Smoke, clair
 Wind from NNO
Vent: NNO 15 km/h
Temprature: 23°C
Point de rose: 16°C
Humidit: 65%
Baromtre: 1011.2 hPa
Rsum: Smoke
Clouds: clair
Visibility: 16 km
2020/09/29 01:47 KPAO 290147Z 33008KT 10SM FU SKC 23/16 A2986 RMK LAST
KRHV - San Jose/Reid, California, USA
Distance from station: ENE 19km
Mise jour: 29/09/2020 06:47
NOT Current
clair
clair
 Wind from O
Vent: O 6 km/h
Temprature: 23°C
Point de rose: 16°C
Humidit: 65%
Baromtre: 1013.9 hPa
Clouds: clair
Visibility: 16 km
2020/09/29 04:47 KRHV 290447Z 27003KT 10SM SKC 23/16 A2994 RMK LAST
 
KOAK - Oakland, California, USA
Distance from station: NNO 50km
Mise jour: 29/09/2020 13:53
Few Clouds
Few Clouds
 Wind from N
Vent: N 6 km/h
Temprature: 17°C
Point de rose: 14°C
Humidit: 83%
Baromtre: 1014.9 hPa
Clouds: Few Clouds
Visibility: 16 km
Cloud details: Few Clouds 305 m
Few Clouds 1829 m
2020/09/29 11:53 KOAK 291153Z 36003KT 10SM FEW010 FEW060 17/14 A2997 RMK AO2 SLP146 T01670139 10183 20156 55002
KSQL - San Carlos Airpo, California, USA
Distance from station: NO 34km
Mise jour: 29/09/2020 14:35
couvert
couvert
 Wind from calm
Vent: calme
Temprature: 17°C
Point de rose: 14°C
Humidit: 83%
Baromtre: 1015.2 hPa
Clouds: couvert
Visibility: 16 km
Cloud details: couvert 1524 m
2020/09/29 12:35 KSQL 291235Z AUTO 00000KT 10SM OVC050 17/14 A2998 RMK AO2
 
KSFO - San Francisco, California, USA
Distance from station: NO 49km
Mise jour: 29/09/2020 13:56
Few Clouds
Few Clouds
 Wind from ONO
Vent: ONO 13 km/h
Temprature: 14°C
Point de rose: 12°C
Humidit: 88%
Baromtre: 1014.6 hPa
Clouds: Few Clouds
Visibility: 16 km
Cloud details: Few Clouds 1524 m
Few Clouds 6096 m
2020/09/29 11:56 KSFO 291156Z 29007KT 10SM FEW050 FEW200 14/12 A2996 RMK AO2 SLP144 T01440122 10172 20144 55002
KE16 - San Martin, California, USA
Distance from station: ESE 43km
Mise jour: 29/09/2020 14:30
clair
clair
 Wind from SSE
Vent: SSE 6 km/h
Temprature: 13°C
Point de rose: 10°C
Humidit: 82%
Baromtre: 1015.9 hPa
Clouds: clair
Visibility: 16 km
2020/09/29 12:30 KE16 291230Z AUTO 15003KT 10SM CLR 13/10 A3000 RMK AO2 PWINO PNO
 
KWVI - Watsonville, California, USA
Distance from station: SSE 44km
Mise jour: 29/09/2020 13:53
Fog, couvert
Fog, couvert
 Wind from calm
Vent: calme
Temprature: 13°C
Point de rose: 13°C
Humidit: 100%
Baromtre: 1015.2 hPa
Rsum: Fog
Clouds: couvert
Visibility: 0.4 km
Cloud details: couvert 61 m
2020/09/29 11:53 KWVI 291153Z AUTO 00000KT 1/4SM FG VV002 13/13 A2998 RMK AO2 SLP153 T01280128 10144 20117 53004
KHAF - Half Moon Bay, California, USA
Distance from station: ONO 50km
Mise jour: 29/09/2020 14:35
Fog, couvert
Fog, couvert
 Wind from SSE
Vent: SSE 11 km/h
Temprature: 13°C
Point de rose: 13°C
Humidit: 100%
Baromtre: 1015.9 hPa
Rsum: Fog
Clouds: couvert
Visibility: 0.4 km
Cloud details: couvert 61 m
2020/09/29 12:35 KHAF 291235Z AUTO 15006KT 1/4SM FG OVC002 13/13 A3000 RMK AO2
 
KHWD - Hayward, California, USA
Distance from station: N 44km
Mise jour: 29/09/2020 13:54
clair
clair
 Wind from calm
Vent: calme
Temprature: 17°C
Point de rose: 13°C
Humidit: 77%
Baromtre: 1014.6 hPa
Clouds: clair
Visibility: 16 km
2020/09/29 11:54 KHWD 291154Z 00000KT 10SM CLR 17/13 A2996 RMK AO2 SLP153 T01670128 10194 20167 55002
KLVK - Livermore, California, USA
Distance from station: NNE 51km
Mise jour: 29/09/2020 13:53
clair
clair
 Wind from ENE
Vent: ENE 6 km/h
Temprature: 17°C
Point de rose: 5°C
Humidit: 45%
Baromtre: 1014.6 hPa
Clouds: clair
Visibility: 16 km
2020/09/29 11:53 KLVK 291153Z AUTO 07003KT 10SM CLR 17/05 A2996 RMK AO2 SLP140 T01720050 10228 20172 53001